Aérodrome :
LOGIN :

S'inscrire | Disclaimer

   EN    FR    IT 

 










Légende :    VFR   VFR Marginal   IFR   IFR Intensif   IFR Très Intensif
Visi : 
Plafond : 
>= 8 km
>= 3000ft
5 à 8 km
1000 à 3000 ft
1500m à 5 km
500 à 1000 ft
800 à 1500m
200 à 500 ft
< 800m
< 200 ft
Symboles :   Orages  Brouillard  Fortes neiges  Fortes précipitations  Vent > 20 kt
SIGMETs :   Divers  Orages  Givrage  Turbulence  Onde Orograph.  Cendres Volcan.







- Altitude de l'aérodrome : 102 ft
- Code IATA : KEL


EDHK - Holtenau

DERNIER METAR :
  • 121250Z 06010KT 030V090 9999 BKN012 OVC018 04/00 Q1027

METARs EXPIRÉS :
  • 121150Z 07010KT 9999 SCT013 05/02 Q1027
  • 121120Z 07010KT 9999 SCT015 04/01 Q1027
  • 121050Z 07011KT 9999 BKN020 04/02 Q1027
  • 121020Z 05011KT 9999 BKN014 04/02 Q1027

TAF TAF EDHK
Valide du 12 à 12h jusqu'au 12 à 18h UTC


121100Z 1212/1218 05012KT 9999 BKN020
PROB30
TEMPO 1215/1218 BKN012
Pas de NOTAMs connus pour ce terrain.



MET'MAP, la Météo Aéronautique d'un coup d'oeil ! - Copyright ORBIFLY Décembre 2007 - Disclaimer

ORBIFLY MET'MAP TEAM :

Programmation & Développement : Alexandra Zaïnal
Conception & Développement : Baudouin d'Aumeries
Co-Programmation & Développement : Marc-Olivier Méhu
Soutien technique & logistique : Manuel Goepfert

Contact : metmap@orbifly.com




SOURCES & CREDITS :

   NOAA